Virtual Norwegian is not affiliated with Norwegian Air Shuttle in any way.
If you are looking for the real "Norwegian", or you wish to book Norwegian flights, please visit Norwegian.com


We use cookies to ensure you get the best experience on our website.   ACCEPT

ESSA - ARN - Stockholm (Arlanda)

General Info Alternate Airport
ICAO: ESSA Elevation: 137 ft ICAO: ESKN
IATA: ARN Country: Sweden IATA: NYO
City: Stockholm Charts: Log in to view charts City: Stockholm
Name: Arlanda Hub: Yes Name Skavsta
General Info
ICAO: ESSA
IATA: ARN
City: Stockholm
Name: Arlanda
Elevation: 137 ft
Country: Sweden
Charts: Log in to view charts
Hub: Yes
 
Alternate Airport
ICAO: ESKN
IATA: NYO
City: Stockholm
Name: Skavsta

Weather
192020Z 22011KT CAVOK 15/08 Q1008 NOSIG
Weather
192020Z 22011KT CAVOK 15/08 Q1008 NOSIG

Runway Info
01L
Length ILS/LOC Course
3301 m 109.90 005
01R
Length ILS/LOC Course
2500 m 109.35 005
08
Length ILS/LOC Course
2500 m 109.55 071
19L
Length ILS/LOC Course
2500 m 111.35 185
19R
Length ILS/LOC Course
3301 m 110.70 185
26
Length ILS/LOC Course
2500 m 110.10 251

NOTAMs
NOTAMs currently unavailable.
NOTAMs
NOTAMs currently unavailable

Route map
Airport
Airport (hub)